Terminal Aerodrome Forecast
Issued by NWS

Home | Current Version | Previous Version | Text Only | Print | Product List | Glossary On
Versions: 1 2 3 4 5 6 7 8 9 10 11 12 13 14 15 16 17 18 19 20 21 22 23 24 25 26 27 28 29
000
FTUS41 KGYX 301741
TAFLEB
TAF
KLEB 301741Z 3018/3118 VRB03KT 3SM -SHSN BR SCT012 OVC035
      TEMPO 3018/3022 2SM -SN BR OVC012
     FM302200 34010KT 4SM -SN BLSN OVC025
     FM310800 33011G20KT P6SM -SHSN BKN040=

USA.gov is the U.S. government's official web portal to all federal, state and local government web resources and services.